sensor_id;sensor_type;location;lat;lon;timestamp;P1;durP1;ratioP1;P2;durP2;ratioP2
86135;SDS011;76795;51.360;4.546;2024-03-08T00:01:06;37.92;;;19.73;;
86135;SDS011;76795;51.360;4.546;2024-03-08T00:03:32;36.95;;;20.25;;
86135;SDS011;76795;51.360;4.546;2024-03-08T00:05:58;45.72;;;20.20;;
86135;SDS011;76795;51.360;4.546;2024-03-08T00:08:24;40.03;;;19.05;;
86135;SDS011;76795;51.360;4.546;2024-03-08T00:10:50;39.78;;;19.55;;
86135;SDS011;76795;51.360;4.546;2024-03-08T00:13:15;36.30;;;19.00;;
86135;SDS011;76795;51.360;4.546;2024-03-08T00:15:42;37.25;;;19.75;;
86135;SDS011;76795;51.360;4.546;2024-03-08T00:18:07;38.97;;;19.63;;
86135;SDS011;76795;51.360;4.546;2024-03-08T00:20:33;43.95;;;19.38;;
86135;SDS011;76795;51.360;4.546;2024-03-08T00:22:59;38.85;;;19.38;;
86135;SDS011;76795;51.360;4.546;2024-03-08T00:25:24;36.45;;;18.30;;
86135;SDS011;76795;51.360;4.546;2024-03-08T00:27:50;37.92;;;19.73;;
86135;SDS011;76795;51.360;4.546;2024-03-08T00:30:16;34.08;;;16.42;;
86135;SDS011;76795;51.360;4.546;2024-03-08T00:32:42;37.53;;;17.88;;
86135;SDS011;76795;51.360;4.546;2024-03-08T00:35:07;32.05;;;17.17;;
86135;SDS011;76795;51.360;4.546;2024-03-08T00:37:33;36.75;;;19.08;;
86135;SDS011;76795;51.360;4.546;2024-03-08T00:40:02;37.83;;;19.45;;
86135;SDS011;76795;51.360;4.546;2024-03-08T00:42:28;35.97;;;19.05;;
86135;SDS011;76795;51.360;4.546;2024-03-08T00:44:57;38.70;;;19.25;;
86135;SDS011;76795;51.360;4.546;2024-03-08T00:47:23;42.05;;;18.95;;
86135;SDS011;76795;51.360;4.546;2024-03-08T00:49:49;35.05;;;18.92;;
86135;SDS011;76795;51.360;4.546;2024-03-08T00:52:14;35.65;;;19.08;;
86135;SDS011;76795;51.360;4.546;2024-03-08T00:54:40;34.00;;;17.95;;
86135;SDS011;76795;51.360;4.546;2024-03-08T00:57:06;39.83;;;19.55;;
86135;SDS011;76795;51.360;4.546;2024-03-08T00:59:31;39.70;;;19.33;;
86135;SDS011;76795;51.360;4.546;2024-03-08T01:01:58;36.65;;;18.92;;
86135;SDS011;76795;51.360;4.546;2024-03-08T01:04:25;38.42;;;19.65;;
86135;SDS011;76795;51.360;4.546;2024-03-08T01:06:53;39.83;;;18.13;;
86135;SDS011;76795;51.360;4.546;2024-03-08T01:09:21;38.83;;;19.50;;
86135;SDS011;76795;51.360;4.546;2024-03-08T01:11:47;35.45;;;18.60;;
86135;SDS011;76795;51.360;4.546;2024-03-08T01:14:14;35.08;;;18.40;;
86135;SDS011;76795;51.360;4.546;2024-03-08T01:16:40;38.22;;;18.63;;
86135;SDS011;76795;51.360;4.546;2024-03-08T01:19:06;35.53;;;19.08;;
86135;SDS011;76795;51.360;4.546;2024-03-08T01:21:31;36.63;;;19.40;;
86135;SDS011;76795;51.360;4.546;2024-03-08T01:23:57;40.00;;;20.17;;
86135;SDS011;76795;51.360;4.546;2024-03-08T01:26:23;35.65;;;18.40;;
86135;SDS011;76795;51.360;4.546;2024-03-08T01:28:49;34.50;;;18.65;;
86135;SDS011;76795;51.360;4.546;2024-03-08T01:31:15;36.13;;;19.63;;
86135;SDS011;76795;51.360;4.546;2024-03-08T01:33:41;36.55;;;17.65;;
86135;SDS011;76795;51.360;4.546;2024-03-08T01:36:07;35.47;;;17.95;;
86135;SDS011;76795;51.360;4.546;2024-03-08T01:38:33;33.60;;;18.30;;
86135;SDS011;76795;51.360;4.546;2024-03-08T01:40:59;39.65;;;18.48;;
86135;SDS011;76795;51.360;4.546;2024-03-08T01:43:25;34.30;;;18.08;;
86135;SDS011;76795;51.360;4.546;2024-03-08T01:45:58;35.13;;;19.33;;
86135;SDS011;76795;51.360;4.546;2024-03-08T01:48:29;30.95;;;17.83;;
86135;SDS011;76795;51.360;4.546;2024-03-08T01:50:56;32.85;;;18.23;;
86135;SDS011;76795;51.360;4.546;2024-03-08T01:53:24;34.05;;;18.20;;
86135;SDS011;76795;51.360;4.546;2024-03-08T01:55:51;33.35;;;17.55;;
86135;SDS011;76795;51.360;4.546;2024-03-08T01:58:22;33.63;;;18.60;;
86135;SDS011;76795;51.360;4.546;2024-03-08T02:00:48;32.15;;;17.73;;
86135;SDS011;76795;51.360;4.546;2024-03-08T02:03:17;36.75;;;17.65;;
86135;SDS011;76795;51.360;4.546;2024-03-08T02:05:44;37.50;;;18.52;;
86135;SDS011;76795;51.360;4.546;2024-03-08T02:08:10;35.35;;;18.10;;
86135;SDS011;76795;51.360;4.546;2024-03-08T02:10:39;32.80;;;16.95;;
86135;SDS011;76795;51.360;4.546;2024-03-08T02:13:09;31.05;;;19.23;;
86135;SDS011;76795;51.360;4.546;2024-03-08T02:15:54;33.75;;;18.20;;
86135;SDS011;76795;51.360;4.546;2024-03-08T02:18:24;34.90;;;18.30;;
86135;SDS011;76795;51.360;4.546;2024-03-08T02:21:00;34.35;;;18.23;;
86135;SDS011;76795;51.360;4.546;2024-03-08T02:23:30;32.73;;;18.23;;
86135;SDS011;76795;51.360;4.546;2024-03-08T02:25:57;31.10;;;17.40;;
86135;SDS011;76795;51.360;4.546;2024-03-08T02:28:23;33.42;;;17.10;;
86135;SDS011;76795;51.360;4.546;2024-03-08T02:30:56;34.80;;;18.52;;
86135;SDS011;76795;51.360;4.546;2024-03-08T02:33:25;35.15;;;18.08;;
86135;SDS011;76795;51.360;4.546;2024-03-08T02:35:52;36.72;;;19.13;;
86135;SDS011;76795;51.360;4.546;2024-03-08T02:38:18;31.45;;;18.25;;
86135;SDS011;76795;51.360;4.546;2024-03-08T02:40:45;31.35;;;17.45;;
86135;SDS011;76795;51.360;4.546;2024-03-08T02:43:13;33.17;;;19.00;;
86135;SDS011;76795;51.360;4.546;2024-03-08T02:45:39;31.45;;;18.17;;
86135;SDS011;76795;51.360;4.546;2024-03-08T02:48:07;35.75;;;19.27;;
86135;SDS011;76795;51.360;4.546;2024-03-08T02:50:33;29.80;;;17.63;;
86135;SDS011;76795;51.360;4.546;2024-03-08T02:53:02;32.90;;;18.13;;
86135;SDS011;76795;51.360;4.546;2024-03-08T02:55:29;30.17;;;17.38;;
86135;SDS011;76795;51.360;4.546;2024-03-08T02:57:55;28.23;;;17.33;;
86135;SDS011;76795;51.360;4.546;2024-03-08T03:00:22;33.42;;;18.73;;
86135;SDS011;76795;51.360;4.546;2024-03-08T03:02:51;32.25;;;18.75;;
86135;SDS011;76795;51.360;4.546;2024-03-08T03:05:22;31.50;;;17.45;;
86135;SDS011;76795;51.360;4.546;2024-03-08T03:07:48;32.97;;;17.80;;
86135;SDS011;76795;51.360;4.546;2024-03-08T03:10:16;32.42;;;18.02;;
86135;SDS011;76795;51.360;4.546;2024-03-08T03:12:42;32.00;;;18.23;;
86135;SDS011;76795;51.360;4.546;2024-03-08T03:15:09;34.08;;;18.70;;
86135;SDS011;76795;51.360;4.546;2024-03-08T03:17:36;33.85;;;17.30;;
86135;SDS011;76795;51.360;4.546;2024-03-08T03:20:04;28.58;;;17.40;;
86135;SDS011;76795;51.360;4.546;2024-03-08T03:22:36;30.17;;;16.35;;
86135;SDS011;76795;51.360;4.546;2024-03-08T03:25:02;30.88;;;18.42;;
86135;SDS011;76795;51.360;4.546;2024-03-08T03:27:31;29.20;;;17.20;;
86135;SDS011;76795;51.360;4.546;2024-03-08T03:29:57;29.50;;;16.63;;
86135;SDS011;76795;51.360;4.546;2024-03-08T03:32:23;33.80;;;18.55;;
86135;SDS011;76795;51.360;4.546;2024-03-08T03:34:49;29.98;;;17.80;;
86135;SDS011;76795;51.360;4.546;2024-03-08T03:37:21;33.30;;;18.02;;
86135;SDS011;76795;51.360;4.546;2024-03-08T03:39:46;28.42;;;17.17;;
86135;SDS011;76795;51.360;4.546;2024-03-08T03:44:46;30.20;;;17.13;;
86135;SDS011;76795;51.360;4.546;2024-03-08T03:47:12;31.75;;;18.25;;
86135;SDS011;76795;51.360;4.546;2024-03-08T03:49:39;28.85;;;16.88;;
86135;SDS011;76795;51.360;4.546;2024-03-08T03:52:09;26.05;;;16.17;;
86135;SDS011;76795;51.360;4.546;2024-03-08T03:54:35;25.45;;;16.17;;
86135;SDS011;76795;51.360;4.546;2024-03-08T03:57:01;32.38;;;18.48;;
86135;SDS011;76795;51.360;4.546;2024-03-08T03:59:27;29.30;;;16.05;;
86135;SDS011;76795;51.360;4.546;2024-03-08T04:01:53;32.08;;;17.98;;
86135;SDS011;76795;51.360;4.546;2024-03-08T04:04:19;28.33;;;16.65;;
86135;SDS011;76795;51.360;4.546;2024-03-08T04:06:46;28.27;;;16.75;;
86135;SDS011;76795;51.360;4.546;2024-03-08T04:09:11;28.02;;;16.25;;
86135;SDS011;76795;51.360;4.546;2024-03-08T04:11:37;32.95;;;17.10;;
86135;SDS011;76795;51.360;4.546;2024-03-08T04:14:04;30.27;;;17.63;;
86135;SDS011;76795;51.360;4.546;2024-03-08T04:16:30;28.95;;;17.30;;
86135;SDS011;76795;51.360;4.546;2024-03-08T04:18:56;28.17;;;16.90;;
86135;SDS011;76795;51.360;4.546;2024-03-08T04:21:23;28.92;;;17.63;;
86135;SDS011;76795;51.360;4.546;2024-03-08T04:23:48;30.65;;;17.33;;
86135;SDS011;76795;51.360;4.546;2024-03-08T04:26:14;30.38;;;16.77;;
86135;SDS011;76795;51.360;4.546;2024-03-08T04:28:40;30.35;;;17.73;;
86135;SDS011;76795;51.360;4.546;2024-03-08T04:31:06;30.35;;;18.13;;
86135;SDS011;76795;51.360;4.546;2024-03-08T04:33:32;28.40;;;16.70;;
86135;SDS011;76795;51.360;4.546;2024-03-08T04:36:00;29.75;;;17.00;;
86135;SDS011;76795;51.360;4.546;2024-03-08T04:38:29;31.33;;;18.13;;
86135;SDS011;76795;51.360;4.546;2024-03-08T04:40:55;30.10;;;17.67;;
86135;SDS011;76795;51.360;4.546;2024-03-08T04:43:24;28.45;;;16.33;;
86135;SDS011;76795;51.360;4.546;2024-03-08T04:45:52;32.05;;;17.10;;
86135;SDS011;76795;51.360;4.546;2024-03-08T04:48:18;28.67;;;17.50;;
86135;SDS011;76795;51.360;4.546;2024-03-08T04:50:45;27.75;;;17.48;;
86135;SDS011;76795;51.360;4.546;2024-03-08T04:53:11;28.08;;;17.13;;
86135;SDS011;76795;51.360;4.546;2024-03-08T04:55:37;28.45;;;17.90;;
86135;SDS011;76795;51.360;4.546;2024-03-08T04:58:03;28.92;;;17.25;;
86135;SDS011;76795;51.360;4.546;2024-03-08T05:00:32;29.30;;;16.55;;
86135;SDS011;76795;51.360;4.546;2024-03-08T05:02:58;29.17;;;16.05;;
86135;SDS011;76795;51.360;4.546;2024-03-08T05:05:24;27.08;;;16.02;;
86135;SDS011;76795;51.360;4.546;2024-03-08T05:07:50;33.97;;;18.48;;
86135;SDS011;76795;51.360;4.546;2024-03-08T05:10:15;27.15;;;16.40;;
86135;SDS011;76795;51.360;4.546;2024-03-08T05:12:43;33.83;;;18.67;;
86135;SDS011;76795;51.360;4.546;2024-03-08T05:15:09;28.42;;;16.60;;
86135;SDS011;76795;51.360;4.546;2024-03-08T05:17:35;29.02;;;16.83;;
86135;SDS011;76795;51.360;4.546;2024-03-08T05:20:00;32.67;;;18.10;;
86135;SDS011;76795;51.360;4.546;2024-03-08T05:22:26;30.35;;;17.15;;
86135;SDS011;76795;51.360;4.546;2024-03-08T05:24:53;31.35;;;17.65;;
86135;SDS011;76795;51.360;4.546;2024-03-08T05:27:18;31.40;;;16.90;;
86135;SDS011;76795;51.360;4.546;2024-03-08T05:29:44;29.67;;;17.13;;
86135;SDS011;76795;51.360;4.546;2024-03-08T05:32:11;30.27;;;17.08;;
86135;SDS011;76795;51.360;4.546;2024-03-08T05:34:37;30.20;;;17.60;;
86135;SDS011;76795;51.360;4.546;2024-03-08T05:37:03;29.13;;;16.38;;
86135;SDS011;76795;51.360;4.546;2024-03-08T05:39:29;28.20;;;15.65;;
86135;SDS011;76795;51.360;4.546;2024-03-08T05:41:55;31.15;;;17.52;;
86135;SDS011;76795;51.360;4.546;2024-03-08T05:44:21;31.38;;;17.25;;
86135;SDS011;76795;51.360;4.546;2024-03-08T05:46:47;28.33;;;16.42;;
86135;SDS011;76795;51.360;4.546;2024-03-08T05:49:12;23.60;;;14.77;;
86135;SDS011;76795;51.360;4.546;2024-03-08T05:51:39;28.67;;;16.98;;
86135;SDS011;76795;51.360;4.546;2024-03-08T05:54:12;28.77;;;16.10;;
86135;SDS011;76795;51.360;4.546;2024-03-08T05:56:38;30.02;;;16.35;;
86135;SDS011;76795;51.360;4.546;2024-03-08T05:59:08;27.52;;;16.55;;
86135;SDS011;76795;51.360;4.546;2024-03-08T06:01:35;31.08;;;17.52;;
86135;SDS011;76795;51.360;4.546;2024-03-08T06:04:01;30.88;;;17.20;;
86135;SDS011;76795;51.360;4.546;2024-03-08T06:06:28;29.83;;;17.02;;
86135;SDS011;76795;51.360;4.546;2024-03-08T06:08:55;29.25;;;16.73;;
86135;SDS011;76795;51.360;4.546;2024-03-08T06:11:25;26.58;;;16.45;;
86135;SDS011;76795;51.360;4.546;2024-03-08T06:13:55;26.95;;;15.57;;
86135;SDS011;76795;51.360;4.546;2024-03-08T06:16:25;33.33;;;17.35;;
86135;SDS011;76795;51.360;4.546;2024-03-08T06:18:55;29.77;;;16.63;;
86135;SDS011;76795;51.360;4.546;2024-03-08T06:21:24;27.97;;;16.40;;
86135;SDS011;76795;51.360;4.546;2024-03-08T06:23:51;28.83;;;16.65;;
86135;SDS011;76795;51.360;4.546;2024-03-08T06:26:23;30.90;;;16.70;;
86135;SDS011;76795;51.360;4.546;2024-03-08T06:28:50;28.30;;;16.95;;
86135;SDS011;76795;51.360;4.546;2024-03-08T06:31:16;33.03;;;16.85;;
86135;SDS011;76795;51.360;4.546;2024-03-08T06:33:42;24.80;;;16.15;;
86135;SDS011;76795;51.360;4.546;2024-03-08T06:36:08;27.67;;;15.48;;
86135;SDS011;76795;51.360;4.546;2024-03-08T06:38:34;29.25;;;15.65;;
86135;SDS011;76795;51.360;4.546;2024-03-08T06:41:00;28.73;;;16.63;;
86135;SDS011;76795;51.360;4.546;2024-03-08T06:43:28;30.92;;;17.35;;
86135;SDS011;76795;51.360;4.546;2024-03-08T06:45:59;28.27;;;15.68;;
86135;SDS011;76795;51.360;4.546;2024-03-08T06:48:25;26.30;;;16.73;;
86135;SDS011;76795;51.360;4.546;2024-03-08T06:50:50;29.55;;;17.10;;
86135;SDS011;76795;51.360;4.546;2024-03-08T06:53:16;27.55;;;15.70;;
86135;SDS011;76795;51.360;4.546;2024-03-08T06:55:45;32.75;;;17.92;;
86135;SDS011;76795;51.360;4.546;2024-03-08T06:58:10;29.10;;;16.85;;
86135;SDS011;76795;51.360;4.546;2024-03-08T07:00:36;30.10;;;15.52;;
86135;SDS011;76795;51.360;4.546;2024-03-08T07:03:02;29.70;;;16.67;;
86135;SDS011;76795;51.360;4.546;2024-03-08T07:05:31;29.02;;;16.85;;
86135;SDS011;76795;51.360;4.546;2024-03-08T07:07:57;31.33;;;17.20;;
86135;SDS011;76795;51.360;4.546;2024-03-08T07:10:23;28.45;;;16.25;;
86135;SDS011;76795;51.360;4.546;2024-03-08T07:12:52;27.35;;;16.70;;
86135;SDS011;76795;51.360;4.546;2024-03-08T07:15:20;29.55;;;16.75;;
86135;SDS011;76795;51.360;4.546;2024-03-08T07:17:48;33.30;;;17.08;;
86135;SDS011;76795;51.360;4.546;2024-03-08T07:20:17;29.88;;;16.10;;
86135;SDS011;76795;51.360;4.546;2024-03-08T07:22:44;28.42;;;15.00;;
86135;SDS011;76795;51.360;4.546;2024-03-08T07:25:12;28.98;;;14.10;;
86135;SDS011;76795;51.360;4.546;2024-03-08T07:27:48;26.88;;;15.25;;
86135;SDS011;76795;51.360;4.546;2024-03-08T07:30:20;28.23;;;16.25;;
86135;SDS011;76795;51.360;4.546;2024-03-08T07:33:06;27.10;;;14.75;;
86135;SDS011;76795;51.360;4.546;2024-03-08T07:35:32;27.40;;;14.88;;
86135;SDS011;76795;51.360;4.546;2024-03-08T07:38:02;27.63;;;15.70;;
86135;SDS011;76795;51.360;4.546;2024-03-08T07:40:31;33.15;;;17.17;;
86135;SDS011;76795;51.360;4.546;2024-03-08T07:43:00;28.88;;;16.88;;
86135;SDS011;76795;51.360;4.546;2024-03-08T07:45:26;26.25;;;15.85;;
86135;SDS011;76795;51.360;4.546;2024-03-08T07:47:51;30.95;;;17.33;;
86135;SDS011;76795;51.360;4.546;2024-03-08T07:50:18;29.25;;;16.98;;
86135;SDS011;76795;51.360;4.546;2024-03-08T07:52:44;28.00;;;15.77;;
86135;SDS011;76795;51.360;4.546;2024-03-08T07:55:10;27.92;;;15.20;;
86135;SDS011;76795;51.360;4.546;2024-03-08T07:57:36;30.25;;;16.75;;
86135;SDS011;76795;51.360;4.546;2024-03-08T08:00:04;27.83;;;16.35;;
86135;SDS011;76795;51.360;4.546;2024-03-08T08:02:32;32.28;;;16.67;;
86135;SDS011;76795;51.360;4.546;2024-03-08T08:05:00;28.10;;;15.30;;
86135;SDS011;76795;51.360;4.546;2024-03-08T08:07:26;23.70;;;14.73;;
86135;SDS011;76795;51.360;4.546;2024-03-08T08:09:52;26.55;;;15.65;;
86135;SDS011;76795;51.360;4.546;2024-03-08T08:12:19;27.27;;;15.95;;
86135;SDS011;76795;51.360;4.546;2024-03-08T08:14:45;30.35;;;15.52;;
86135;SDS011;76795;51.360;4.546;2024-03-08T08:17:11;28.83;;;14.98;;
86135;SDS011;76795;51.360;4.546;2024-03-08T08:19:37;31.65;;;16.63;;
86135;SDS011;76795;51.360;4.546;2024-03-08T08:22:05;27.60;;;15.75;;
86135;SDS011;76795;51.360;4.546;2024-03-08T08:24:33;30.77;;;15.25;;
86135;SDS011;76795;51.360;4.546;2024-03-08T08:27:01;28.58;;;15.90;;
86135;SDS011;76795;51.360;4.546;2024-03-08T08:29:27;27.77;;;16.45;;
86135;SDS011;76795;51.360;4.546;2024-03-08T08:31:53;27.20;;;16.15;;
86135;SDS011;76795;51.360;4.546;2024-03-08T08:34:19;27.17;;;15.32;;
86135;SDS011;76795;51.360;4.546;2024-03-08T08:36:49;25.75;;;15.45;;
86135;SDS011;76795;51.360;4.546;2024-03-08T08:39:18;24.42;;;15.25;;
86135;SDS011;76795;51.360;4.546;2024-03-08T08:41:44;25.63;;;15.50;;
86135;SDS011;76795;51.360;4.546;2024-03-08T08:44:10;27.42;;;14.75;;
86135;SDS011;76795;51.360;4.546;2024-03-08T08:46:37;29.20;;;15.77;;
86135;SDS011;76795;51.360;4.546;2024-03-08T08:49:03;24.83;;;14.98;;
86135;SDS011;76795;51.360;4.546;2024-03-08T08:51:31;24.27;;;15.10;;
86135;SDS011;76795;51.360;4.546;2024-03-08T08:53:58;28.83;;;15.60;;
86135;SDS011;76795;51.360;4.546;2024-03-08T08:56:25;26.80;;;15.70;;
86135;SDS011;76795;51.360;4.546;2024-03-08T08:58:51;25.38;;;15.13;;
86135;SDS011;76795;51.360;4.546;2024-03-08T09:01:18;21.95;;;13.65;;
86135;SDS011;76795;51.360;4.546;2024-03-08T09:03:44;25.38;;;14.85;;
86135;SDS011;76795;51.360;4.546;2024-03-08T09:06:11;24.58;;;16.00;;
86135;SDS011;76795;51.360;4.546;2024-03-08T09:08:38;29.42;;;14.20;;
86135;SDS011;76795;51.360;4.546;2024-03-08T09:11:04;27.80;;;16.02;;
86135;SDS011;76795;51.360;4.546;2024-03-08T09:13:30;22.20;;;13.48;;
86135;SDS011;76795;51.360;4.546;2024-03-08T09:15:56;22.98;;;14.05;;
86135;SDS011;76795;51.360;4.546;2024-03-08T09:18:22;26.17;;;15.07;;
86135;SDS011;76795;51.360;4.546;2024-03-08T09:20:49;25.33;;;15.10;;
86135;SDS011;76795;51.360;4.546;2024-03-08T09:23:16;27.77;;;15.52;;
86135;SDS011;76795;51.360;4.546;2024-03-08T09:25:44;23.33;;;14.55;;
86135;SDS011;76795;51.360;4.546;2024-03-08T09:28:11;24.35;;;13.15;;
86135;SDS011;76795;51.360;4.546;2024-03-08T09:30:38;25.52;;;14.98;;
86135;SDS011;76795;51.360;4.546;2024-03-08T09:33:04;24.35;;;14.63;;
86135;SDS011;76795;51.360;4.546;2024-03-08T09:35:31;23.02;;;13.27;;
86135;SDS011;76795;51.360;4.546;2024-03-08T09:37:57;23.02;;;13.75;;
86135;SDS011;76795;51.360;4.546;2024-03-08T09:40:26;20.38;;;12.23;;
86135;SDS011;76795;51.360;4.546;2024-03-08T09:42:55;25.30;;;13.55;;
86135;SDS011;76795;51.360;4.546;2024-03-08T09:45:22;22.98;;;13.93;;
86135;SDS011;76795;51.360;4.546;2024-03-08T09:47:50;22.95;;;14.35;;
86135;SDS011;76795;51.360;4.546;2024-03-08T09:50:16;23.60;;;13.55;;
86135;SDS011;76795;51.360;4.546;2024-03-08T09:52:43;24.05;;;14.75;;
86135;SDS011;76795;51.360;4.546;2024-03-08T09:55:11;21.48;;;12.77;;
86135;SDS011;76795;51.360;4.546;2024-03-08T09:57:37;23.98;;;13.50;;
86135;SDS011;76795;51.360;4.546;2024-03-08T10:00:04;21.52;;;13.25;;
86135;SDS011;76795;51.360;4.546;2024-03-08T10:02:46;22.20;;;13.23;;
86135;SDS011;76795;51.360;4.546;2024-03-08T10:05:12;22.67;;;13.35;;
86135;SDS011;76795;51.360;4.546;2024-03-08T10:07:38;25.20;;;13.93;;
86135;SDS011;76795;51.360;4.546;2024-03-08T10:10:05;23.40;;;14.27;;
86135;SDS011;76795;51.360;4.546;2024-03-08T10:12:33;22.83;;;12.95;;
86135;SDS011;76795;51.360;4.546;2024-03-08T10:15:00;20.08;;;12.73;;
86135;SDS011;76795;51.360;4.546;2024-03-08T10:17:26;20.63;;;12.13;;
86135;SDS011;76795;51.360;4.546;2024-03-08T10:19:52;21.58;;;12.82;;
86135;SDS011;76795;51.360;4.546;2024-03-08T10:22:18;18.65;;;12.80;;
86135;SDS011;76795;51.360;4.546;2024-03-08T10:24:47;21.30;;;11.93;;
86135;SDS011;76795;51.360;4.546;2024-03-08T10:27:13;21.08;;;12.77;;
86135;SDS011;76795;51.360;4.546;2024-03-08T10:29:42;21.08;;;13.20;;
86135;SDS011;76795;51.360;4.546;2024-03-08T10:32:09;19.52;;;12.30;;
86135;SDS011;76795;51.360;4.546;2024-03-08T10:34:35;22.38;;;12.85;;
86135;SDS011;76795;51.360;4.546;2024-03-08T10:37:04;19.70;;;13.05;;
86135;SDS011;76795;51.360;4.546;2024-03-08T10:39:35;19.90;;;12.75;;
86135;SDS011;76795;51.360;4.546;2024-03-08T10:42:02;21.13;;;13.40;;
86135;SDS011;76795;51.360;4.546;2024-03-08T10:50:02;19.77;;;12.30;;
86135;SDS011;76795;51.360;4.546;2024-03-08T10:52:34;18.70;;;11.23;;
86135;SDS011;76795;51.360;4.546;2024-03-08T10:55:02;19.52;;;11.93;;
86135;SDS011;76795;51.360;4.546;2024-03-08T10:57:28;20.30;;;12.35;;
86135;SDS011;76795;51.360;4.546;2024-03-08T10:59:54;21.25;;;12.65;;
86135;SDS011;76795;51.360;4.546;2024-03-08T11:02:20;20.85;;;12.85;;
86135;SDS011;76795;51.360;4.546;2024-03-08T11:04:47;19.15;;;11.52;;
86135;SDS011;76795;51.360;4.546;2024-03-08T11:07:14;20.08;;;12.18;;
86135;SDS011;76795;51.360;4.546;2024-03-08T11:09:43;19.23;;;12.32;;
86135;SDS011;76795;51.360;4.546;2024-03-08T11:12:20;20.35;;;12.32;;
86135;SDS011;76795;51.360;4.546;2024-03-08T11:14:47;19.90;;;11.82;;
86135;SDS011;76795;51.360;4.546;2024-03-08T11:17:21;18.85;;;11.82;;
86135;SDS011;76795;51.360;4.546;2024-03-08T11:19:55;21.33;;;12.73;;
86135;SDS011;76795;51.360;4.546;2024-03-08T11:22:47;20.33;;;11.93;;
86135;SDS011;76795;51.360;4.546;2024-03-08T11:30:33;14.68;;;9.38;;
86135;SDS011;76795;51.360;4.546;2024-03-08T11:33:00;17.77;;;11.30;;
86135;SDS011;76795;51.360;4.546;2024-03-08T11:35:28;18.75;;;11.38;;
86135;SDS011;76795;51.360;4.546;2024-03-08T11:37:54;17.73;;;11.90;;
86135;SDS011;76795;51.360;4.546;2024-03-08T11:40:23;17.08;;;11.25;;
86135;SDS011;76795;51.360;4.546;2024-03-08T11:42:49;17.02;;;10.82;;
86135;SDS011;76795;51.360;4.546;2024-03-08T11:45:16;17.35;;;10.48;;
86135;SDS011;76795;51.360;4.546;2024-03-08T11:47:43;18.50;;;11.30;;
86135;SDS011;76795;51.360;4.546;2024-03-08T11:50:11;17.40;;;11.00;;
86135;SDS011;76795;51.360;4.546;2024-03-08T11:52:37;18.77;;;10.88;;
86135;SDS011;76795;51.360;4.546;2024-03-08T11:55:03;16.42;;;11.07;;
86135;SDS011;76795;51.360;4.546;2024-03-08T11:57:30;17.75;;;11.27;;
86135;SDS011;76795;51.360;4.546;2024-03-08T11:59:57;17.50;;;10.50;;
86135;SDS011;76795;51.360;4.546;2024-03-08T12:02:31;21.92;;;11.80;;
86135;SDS011;76795;51.360;4.546;2024-03-08T12:05:00;19.77;;;12.52;;
86135;SDS011;76795;51.360;4.546;2024-03-08T12:07:28;19.23;;;12.13;;
86135;SDS011;76795;51.360;4.546;2024-03-08T12:10:16;20.38;;;12.43;;
86135;SDS011;76795;51.360;4.546;2024-03-08T12:12:50;18.65;;;11.48;;
86135;SDS011;76795;51.360;4.546;2024-03-08T12:15:18;19.25;;;11.90;;
86135;SDS011;76795;51.360;4.546;2024-03-08T12:17:46;18.20;;;11.60;;
86135;SDS011;76795;51.360;4.546;2024-03-08T12:20:24;21.73;;;12.88;;
86135;SDS011;76795;51.360;4.546;2024-03-08T12:22:51;19.42;;;11.70;;
86135;SDS011;76795;51.360;4.546;2024-03-08T12:25:18;22.70;;;12.27;;
86135;SDS011;76795;51.360;4.546;2024-03-08T12:27:45;19.90;;;11.85;;
86135;SDS011;76795;51.360;4.546;2024-03-08T12:30:15;20.75;;;12.70;;
86135;SDS011;76795;51.360;4.546;2024-03-08T12:32:46;17.08;;;10.88;;
86135;SDS011;76795;51.360;4.546;2024-03-08T12:35:27;18.83;;;11.32;;
86135;SDS011;76795;51.360;4.546;2024-03-08T12:37:57;22.08;;;13.52;;
86135;SDS011;76795;51.360;4.546;2024-03-08T12:40:31;18.52;;;11.63;;
86135;SDS011;76795;51.360;4.546;2024-03-08T12:42:59;29.33;;;16.30;;
86135;SDS011;76795;51.360;4.546;2024-03-08T12:45:25;20.92;;;12.38;;
86135;SDS011;76795;51.360;4.546;2024-03-08T12:47:52;19.50;;;11.38;;
86135;SDS011;76795;51.360;4.546;2024-03-08T12:50:19;18.13;;;11.73;;
86135;SDS011;76795;51.360;4.546;2024-03-08T12:52:45;22.45;;;12.13;;
86135;SDS011;76795;51.360;4.546;2024-03-08T12:55:11;18.58;;;11.77;;
86135;SDS011;76795;51.360;4.546;2024-03-08T12:57:37;21.45;;;11.65;;
86135;SDS011;76795;51.360;4.546;2024-03-08T13:02:37;17.67;;;11.70;;
86135;SDS011;76795;51.360;4.546;2024-03-08T13:05:04;19.10;;;11.93;;
86135;SDS011;76795;51.360;4.546;2024-03-08T13:07:30;17.75;;;11.43;;
86135;SDS011;76795;51.360;4.546;2024-03-08T13:09:56;17.30;;;10.88;;
86135;SDS011;76795;51.360;4.546;2024-03-08T13:12:24;19.63;;;11.45;;
86135;SDS011;76795;51.360;4.546;2024-03-08T13:14:50;18.20;;;11.77;;
86135;SDS011;76795;51.360;4.546;2024-03-08T13:17:16;17.67;;;12.32;;
86135;SDS011;76795;51.360;4.546;2024-03-08T13:19:44;19.45;;;11.65;;
86135;SDS011;76795;51.360;4.546;2024-03-08T13:22:09;20.35;;;12.23;;
86135;SDS011;76795;51.360;4.546;2024-03-08T13:24:41;19.95;;;11.85;;
86135;SDS011;76795;51.360;4.546;2024-03-08T13:27:10;19.10;;;12.30;;
86135;SDS011;76795;51.360;4.546;2024-03-08T13:29:46;18.95;;;11.65;;
86135;SDS011;76795;51.360;4.546;2024-03-08T13:32:15;17.77;;;11.30;;
86135;SDS011;76795;51.360;4.546;2024-03-08T13:34:45;16.88;;;11.35;;
86135;SDS011;76795;51.360;4.546;2024-03-08T13:39:41;19.23;;;11.45;;
86135;SDS011;76795;51.360;4.546;2024-03-08T13:42:11;17.23;;;10.80;;
86135;SDS011;76795;51.360;4.546;2024-03-08T13:44:47;17.73;;;10.85;;
86135;SDS011;76795;51.360;4.546;2024-03-08T13:47:16;14.43;;;9.48;;
86135;SDS011;76795;51.360;4.546;2024-03-08T13:49:42;21.17;;;11.07;;
86135;SDS011;76795;51.360;4.546;2024-03-08T13:52:08;19.98;;;11.55;;
86135;SDS011;76795;51.360;4.546;2024-03-08T13:54:35;17.55;;;10.80;;
86135;SDS011;76795;51.360;4.546;2024-03-08T13:57:01;17.85;;;11.30;;
86135;SDS011;76795;51.360;4.546;2024-03-08T13:59:32;17.10;;;11.48;;
86135;SDS011;76795;51.360;4.546;2024-03-08T14:01:58;16.08;;;10.80;;
86135;SDS011;76795;51.360;4.546;2024-03-08T14:04:26;21.65;;;11.20;;
86135;SDS011;76795;51.360;4.546;2024-03-08T14:06:53;16.40;;;10.65;;
86135;SDS011;76795;51.360;4.546;2024-03-08T14:09:22;18.05;;;11.43;;
86135;SDS011;76795;51.360;4.546;2024-03-08T14:11:50;18.27;;;11.52;;
86135;SDS011;76795;51.360;4.546;2024-03-08T14:14:23;17.17;;;11.13;;
86135;SDS011;76795;51.360;4.546;2024-03-08T14:16:49;17.27;;;11.40;;
86135;SDS011;76795;51.360;4.546;2024-03-08T14:19:19;17.00;;;11.55;;
86135;SDS011;76795;51.360;4.546;2024-03-08T14:21:45;18.73;;;11.73;;
86135;SDS011;76795;51.360;4.546;2024-03-08T14:24:13;17.15;;;10.93;;
86135;SDS011;76795;51.360;4.546;2024-03-08T14:26:40;16.55;;;9.93;;
86135;SDS011;76795;51.360;4.546;2024-03-08T14:29:07;16.67;;;10.27;;
86135;SDS011;76795;51.360;4.546;2024-03-08T14:31:35;17.08;;;10.57;;
86135;SDS011;76795;51.360;4.546;2024-03-08T14:34:01;14.52;;;10.15;;
86135;SDS011;76795;51.360;4.546;2024-03-08T14:36:28;15.82;;;9.88;;
86135;SDS011;76795;51.360;4.546;2024-03-08T14:38:54;14.77;;;10.45;;
86135;SDS011;76795;51.360;4.546;2024-03-08T14:41:20;14.43;;;10.05;;